»·PEaware :: N149CD KOXR-KSNA

N149CD :: KOXR-KSNA

FLIGHT INFORMATION

Flight Status: Arrived
Operator: Privately registered:
United States
More flights under this callsign
Pilot: Nathan E. (30132)
Aircraft: CESSNA 172 SKYHAWK
(C172)
More flights by this aircraft type
Origin: KOXR Oxnard
United States
Destination: KSNA John Wayne-Orange Co
United States
More flights between these airports :: More routes between these airports
Route: VTU044 GINNA V326 VNY V186 BAYJY V363 POXCU V8 SLI
File this flight plan on PilotEdge
Remarks: TEC route VTUP7
Altitude:
(Current/Filed)
5,000ft
Speed:
(Current/Filed)
110kts
Departed: 12-Sep-20 01:57 PM
Arrived: 12-Sep-20 02:59 PM
Distance/Time
Traveled:
74nm/1:02
Distance/Time
To Go:
Arrived

Flight Plot

Page will automatically refresh every two minutes.

Flight plan parsing failed; only flown route is shown


Map Options




Map Legend


Flown Route
Filed Route
Departure Airport
Arrival Airport
Navaid (VOR, NDB)
Fix

Horizontal Profiles

Position Reports

Time Latitude Longitude Heading Altitude Ground
Speed
12-Sep-20 13:43 34.198999 -119.197767 269 43ft 0kts
12-Sep-20 13:44 34.198999 -119.197768 269 43ft 0kts
12-Sep-20 13:45 34.198999 -119.197768 269 43ft 0kts
12-Sep-20 13:46 34.198999 -119.197768 269 43ft 0kts
12-Sep-20 13:47 34.198999 -119.197768 269 43ft 0kts
12-Sep-20 13:48 34.198999 -119.197768 269 43ft 0kts
12-Sep-20 13:49 34.198999 -119.197768 269 43ft 0kts
12-Sep-20 13:50 34.198999 -119.197768 269 43ft 0kts
12-Sep-20 13:51 34.198999 -119.197768 269 43ft 0kts
12-Sep-20 13:52 34.198999 -119.197768 269 43ft 0kts
12-Sep-20 13:53 34.199001 -119.197781 284 43ft 1kts
12-Sep-20 13:54 34.199876 -119.197172 283 43ft 0kts
12-Sep-20 13:55 34.199884 -119.197220 274 43ft 2kts
12-Sep-20 13:56 34.200742 -119.199407 270 43ft 45kts
12-Sep-20 13:57 34.200346 -119.222040 266 792ft 66kts
12-Sep-20 13:58 34.199337 -119.244412 266 1664ft 67kts
12-Sep-20 13:59 34.198782 -119.267074 266 2487ft 68kts
12-Sep-20 14:00 34.198716 -119.290198 266 3266ft 70kts
12-Sep-20 14:01 34.199030 -119.314012 266 4003ft 72kts
12-Sep-20 14:02 34.214952 -119.316161 72 4689ft 89kts
12-Sep-20 14:03 34.216689 -119.283366 92 5012ft 117kts
12-Sep-20 14:04 34.217415 -119.243578 92 5007ft 118kts
12-Sep-20 14:05 34.218039 -119.203901 92 5006ft 118kts
12-Sep-20 14:06 34.218628 -119.164194 92 5005ft 118kts
12-Sep-20 14:07 34.219198 -119.124546 92 5004ft 117kts
12-Sep-20 14:08 34.219750 -119.085151 92 5003ft 117kts
12-Sep-20 14:09 34.220289 -119.045724 92 5001ft 116kts
12-Sep-20 14:10 34.220816 -119.006909 92 5029ft 115kts
12-Sep-20 14:11 34.221321 -118.968063 92 5029ft 115kts
12-Sep-20 14:12 34.221817 -118.929154 93 5028ft 115kts
12-Sep-20 14:13 34.222297 -118.890436 93 5028ft 115kts
12-Sep-20 14:14 34.222764 -118.851895 93 5028ft 114kts
12-Sep-20 14:15 34.222958 -118.813551 86 5028ft 114kts
12-Sep-20 14:16 34.223099 -118.774591 85 5029ft 116kts
12-Sep-20 14:17 34.223214 -118.735737 85 5029ft 114kts
12-Sep-20 14:18 34.223294 -118.697408 85 5029ft 113kts
12-Sep-20 14:19 34.223356 -118.659400 86 5028ft 112kts
12-Sep-20 14:20 34.223404 -118.621826 86 5028ft 111kts
12-Sep-20 14:21 34.223441 -118.584103 87 5027ft 110kts
12-Sep-20 14:22 34.223470 -118.546229 87 5027ft 109kts
12-Sep-20 14:23 34.223483 -118.508242 87 5027ft 110kts
12-Sep-20 14:24 34.216890 -118.471432 106 5027ft 111kts
12-Sep-20 14:25 34.206457 -118.435836 107 5027ft 111kts
12-Sep-20 14:26 34.195848 -118.400536 107 5027ft 111kts
12-Sep-20 14:27 34.185022 -118.364783 107 5027ft 111kts
12-Sep-20 14:28 34.174169 -118.329052 107 5028ft 111kts
12-Sep-20 14:29 34.163419 -118.293720 107 5027ft 111kts
12-Sep-20 14:30 34.152699 -118.258524 107 5025ft 111kts
12-Sep-20 14:31 34.141947 -118.223249 107 5024ft 111kts
12-Sep-20 14:32 34.131185 -118.187987 107 5023ft 111kts
12-Sep-20 14:33 34.120414 -118.152746 107 5021ft 111kts
12-Sep-20 14:34 34.109639 -118.117549 107 5020ft 111kts
12-Sep-20 14:35 34.098871 -118.082428 107 5019ft 111kts
12-Sep-20 14:36 34.088035 -118.047122 107 5022ft 112kts
12-Sep-20 14:37 34.077154 -118.011705 107 5025ft 113kts
12-Sep-20 14:38 34.066160 -117.975950 107 5028ft 114kts
12-Sep-20 14:39 34.055042 -117.939835 107 5029ft 115kts
12-Sep-20 14:40 34.043848 -117.903518 107 5030ft 116kts
12-Sep-20 14:41 34.032601 -117.867082 107 5048ft 115kts
12-Sep-20 14:42 34.021293 -117.830496 107 5048ft 117kts
12-Sep-20 14:43 34.008941 -117.794241 132 5026ft 120kts
12-Sep-20 14:44 33.985555 -117.803023 284 5020ft 108kts
12-Sep-20 14:45 33.996980 -117.797993 144 5028ft 110kts
12-Sep-20 14:46 33.970864 -117.776035 119 4724ft 119kts
12-Sep-20 14:47 33.948306 -117.745191 133 4234ft 124kts
12-Sep-20 14:48 33.922005 -117.719920 173 4009ft 120kts
12-Sep-20 14:49 33.890675 -117.732449 208 3533ft 119kts
12-Sep-20 14:50 33.862551 -117.750114 210 3410ft 111kts
12-Sep-20 14:51 33.833792 -117.768529 210 3119ft 120kts
12-Sep-20 14:52 33.804314 -117.787133 211 2616ft 118kts
12-Sep-20 14:53 33.777275 -117.804359 208 2144ft 102kts
12-Sep-20 14:54 33.752258 -117.820255 208 1648ft 102kts
12-Sep-20 14:55 33.726594 -117.836548 208 1088ft 106kts
12-Sep-20 14:56 33.704376 -117.850631 208 603ft 69kts
12-Sep-20 14:57 33.688512 -117.860685 209 251ft 61kts
12-Sep-20 14:58 33.675863 -117.868742 208 60ft 25kts
12-Sep-20 14:59 33.674407 -117.868479 155 60ft 0kts
12-Sep-20 15:00 33.674280 -117.868385 139 60ft 5kts
12-Sep-20 15:01 33.671932 -117.868241 209 60ft 16kts
12-Sep-20 15:02 33.667563 -117.872538 222 60ft 19kts
12-Sep-20 15:04 33.665875 -117.873052 131 60ft 0kts

Navigation Log

Ident Type
Flight plan parsing failed, navigation log unavailable